Time;durP1;ratioP1;P1;durP2;ratioP2;P2;SDS_P1;SDS_P2;PMS_P1;PMS_P2;Temp;Humidity;BMP_temperature;BMP_pressure;BME280_temperature;BME280_humidity;BME280_pressure;Samples;Min_cycle;Max_cycle;Signal;HPM_P1;HPM_P2
2024/04/06 00:01:07;;;;;;;0.82;0.82;;;;;;;14.50;100.00;100352.50;4423087;32;20191;-85
2024/04/06 00:03:33;;;;;;;2.60;1.15;;;;;;;14.51;100.00;100356.81;4425545;32;20160;-87
2024/04/06 00:05:58;;;;;;;1.58;1.30;;;;;;;14.49;100.00;100359.66;4425213;32;20199;-85
2024/04/06 00:08:24;;;;;;;0.90;0.90;;;;;;;14.49;100.00;100362.34;4424821;32;20217;-85
2024/04/06 00:10:50;;;;;;;2.30;0.93;;;;;;;14.47;100.00;100360.84;4424167;32;20240;-85
2024/04/06 00:13:16;;;;;;;0.80;0.80;;;;;;;14.40;100.00;100352.78;4424581;32;20180;-85
2024/04/06 00:15:42;;;;;;;1.42;0.65;;;;;;;14.45;100.00;100366.37;4422016;32;20250;-86
2024/04/06 00:18:08;;;;;;;1.10;1.00;;;;;;;14.47;100.00;100358.19;4424807;32;20217;-85
2024/04/06 00:20:36;;;;;;;1.20;1.10;;;;;;;14.48;100.00;100357.19;4426094;32;20160;-86
2024/04/06 00:23:03;;;;;;;0.90;0.90;;;;;;;14.44;100.00;100356.75;4423487;32;20148;-86
2024/04/06 00:25:29;;;;;;;1.62;1.08;;;;;;;14.45;100.00;100349.56;4422488;32;20156;-85
2024/04/06 00:27:55;;;;;;;1.20;1.20;;;;;;;14.46;100.00;100354.69;4423780;32;20259;-85
2024/04/06 00:30:20;;;;;;;1.50;0.93;;;;;;;14.45;100.00;100350.34;4424862;32;20279;-84
2024/04/06 00:32:47;;;;;;;1.30;1.20;;;;;;;14.43;100.00;100352.41;4422373;32;20644;-85
2024/04/06 00:35:12;;;;;;;1.08;1.08;;;;;;;14.39;100.00;100353.78;4424065;32;20588;-85
2024/04/06 00:37:38;;;;;;;1.00;0.90;;;;;;;14.41;100.00;100346.44;4425480;32;20213;-85
2024/04/06 00:40:06;;;;;;;0.93;0.93;;;;;;;14.43;100.00;100354.25;4408025;32;20516;-85
2024/04/06 00:42:32;;;;;;;1.17;1.08;;;;;;;14.44;100.00;100353.25;4425836;32;20157;-85
2024/04/06 00:44:57;;;;;;;0.80;0.80;;;;;;;14.43;100.00;100349.75;4428449;32;20225;-85
2024/04/06 00:47:23;;;;;;;1.00;1.00;;;;;;;14.45;100.00;100349.56;4424130;32;20225;-85
2024/04/06 00:49:49;;;;;;;0.95;0.80;;;;;;;14.46;100.00;100349.34;4426209;32;20604;-85
2024/04/06 00:52:15;;;;;;;0.80;0.80;;;;;;;14.46;100.00;100346.69;4410337;32;21435;-85
2024/04/06 00:54:41;;;;;;;1.00;1.00;;;;;;;14.43;100.00;100346.25;4420713;32;20204;-85
2024/04/06 00:57:08;;;;;;;1.40;0.77;;;;;;;14.43;100.00;100360.41;4427545;32;20218;-85
2024/04/06 00:59:34;;;;;;;1.02;1.02;;;;;;;14.41;100.00;100359.78;4419838;32;20200;-85
2024/04/06 01:02:00;;;;;;;0.98;0.90;;;;;;;14.39;100.00;100353.78;4419800;32;20161;-86
2024/04/06 01:04:26;;;;;;;1.40;1.25;;;;;;;14.39;100.00;100359.13;4423821;32;20188;-85
2024/04/06 01:06:54;;;;;;;1.10;1.05;;;;;;;14.39;100.00;100360.97;4426042;32;20226;-85
2024/04/06 01:09:20;;;;;;;1.20;1.00;;;;;;;14.38;100.00;100356.66;4425058;32;20165;-85
2024/04/06 01:11:48;;;;;;;0.82;0.82;;;;;;;14.35;100.00;100355.16;4419988;32;20582;-85
2024/04/06 01:14:13;;;;;;;0.80;0.80;;;;;;;14.36;100.00;100364.00;4412957;32;20645;-85
2024/04/06 01:16:39;;;;;;;0.80;0.80;;;;;;;14.35;100.00;100354.31;4424232;32;20180;-86
2024/04/06 01:19:05;;;;;;;1.05;0.88;;;;;;;14.33;100.00;100362.50;4426350;32;20240;-84
2024/04/06 01:21:31;;;;;;;0.90;0.90;;;;;;;14.33;100.00;100354.50;4413235;32;20200;-84
2024/04/06 01:23:57;;;;;;;1.10;1.10;;;;;;;14.34;100.00;100350.81;4422728;32;20162;-85
2024/04/06 01:26:24;;;;;;;0.90;0.90;;;;;;;14.34;100.00;100348.16;4425019;32;20160;-85
2024/04/06 01:28:50;;;;;;;1.10;0.80;;;;;;;14.36;100.00;100354.12;4423847;32;20153;-85
2024/04/06 01:31:16;;;;;;;0.82;0.82;;;;;;;14.36;100.00;100353.31;4426468;32;20209;-85
2024/04/06 01:33:41;;;;;;;1.20;0.80;;;;;;;14.36;100.00;100351.47;4418600;32;20196;-85
2024/04/06 01:36:08;;;;;;;0.88;0.88;;;;;;;14.36;100.00;100356.81;4424962;32;20527;-85
2024/04/06 01:38:34;;;;;;;0.57;0.57;;;;;;;14.36;100.00;100359.47;4426320;32;20165;-85
2024/04/06 01:40:59;;;;;;;0.70;0.70;;;;;;;14.32;100.00;100347.50;4426272;32;20157;-85
2024/04/06 01:43:26;;;;;;;1.35;0.93;;;;;;;14.38;100.00;100348.66;4411954;32;20278;-84
2024/04/06 01:45:52;;;;;;;0.60;0.60;;;;;;;14.36;100.00;100343.47;4425538;32;20175;-85
2024/04/06 01:48:17;;;;;;;1.08;1.08;;;;;;;14.22;100.00;100317.63;4423621;32;20232;-84
2024/04/06 01:50:43;;;;;;;0.80;0.80;;;;;;;14.36;100.00;100348.81;4424794;32;20592;-85
2024/04/06 01:53:09;;;;;;;1.08;0.98;;;;;;;14.26;100.00;100342.91;4423594;32;20200;-85
2024/04/06 01:55:35;;;;;;;1.00;1.00;;;;;;;14.30;100.00;100344.22;4421461;32;20206;-84
2024/04/06 01:58:01;;;;;;;0.80;0.80;;;;;;;14.37;100.00;100358.47;4409583;32;20184;-85
2024/04/06 02:00:27;;;;;;;0.82;0.82;;;;;;;14.38;100.00;100354.78;4424148;32;20568;-84
2024/04/06 02:02:53;;;;;;;1.50;1.27;;;;;;;14.09;100.00;100304.97;4426678;32;20215;-85
2024/04/06 02:05:19;;;;;;;1.23;1.23;;;;;;;14.40;100.00;100357.28;4424878;32;20527;-85
2024/04/06 02:07:45;;;;;;;2.08;1.87;;;;;;;14.39;100.00;100350.28;4425731;32;20219;-85
2024/04/06 02:10:11;;;;;;;1.37;1.27;;;;;;;14.38;100.00;100346.00;4422126;32;20288;-86
2024/04/06 02:12:36;;;;;;;1.17;1.10;;;;;;;14.38;100.00;100340.66;4426586;32;20160;-84
2024/04/06 02:15:02;;;;;;;1.40;1.30;;;;;;;14.34;100.00;100318.78;4424334;32;20165;-85
2024/04/06 02:17:29;;;;;;;1.50;1.40;;;;;;;14.37;100.00;100330.94;4424344;32;20235;-85
2024/04/06 02:19:55;;;;;;;1.73;1.62;;;;;;;14.37;100.00;100325.63;4423817;32;20172;-85
2024/04/06 02:22:20;;;;;;;1.52;1.40;;;;;;;14.35;100.00;100331.13;4425373;32;20224;-85
2024/04/06 02:24:46;;;;;;;1.48;1.27;;;;;;;14.32;100.00;100330.66;4424913;32;20249;-85
2024/04/06 02:27:12;;;;;;;1.70;1.60;;;;;;;14.02;100.00;100287.22;4425998;32;20183;-85
2024/04/06 02:29:38;;;;;;;1.27;1.27;;;;;;;14.24;100.00;100328.97;4423292;32;20640;-86
2024/04/06 02:32:04;;;;;;;1.30;1.25;;;;;;;14.21;100.00;100326.66;4426956;32;20560;-85
2024/04/06 02:34:31;;;;;;;1.10;1.00;;;;;;;14.17;100.00;100325.37;4422926;32;20640;-85
2024/04/06 02:36:57;;;;;;;1.33;1.25;;;;;;;14.17;100.00;100320.03;4425090;32;20221;-85
2024/04/06 02:39:23;;;;;;;1.27;1.27;;;;;;;14.13;100.00;100330.25;4420938;32;20153;-85
2024/04/06 02:41:48;;;;;;;2.47;1.30;;;;;;;14.08;100.00;100335.31;4428131;32;20173;-85
2024/04/06 02:44:14;;;;;;;1.15;1.05;;;;;;;14.00;100.00;100313.25;4421133;32;20225;-85
2024/04/06 02:46:40;;;;;;;1.08;1.08;;;;;;;13.96;100.00;100328.81;4425100;32;20179;-85
2024/04/06 02:49:06;;;;;;;1.37;1.27;;;;;;;13.90;100.00;100323.38;4419249;32;20149;-85
2024/04/06 02:51:32;;;;;;;0.90;0.90;;;;;;;13.79;100.00;100320.16;4422636;32;20241;-84
2024/04/06 02:53:58;;;;;;;0.88;0.88;;;;;;;13.37;100.00;100266.63;4423610;32;20243;-85
2024/04/06 02:56:25;;;;;;;1.17;1.08;;;;;;;13.68;100.00;100331.28;4425070;32;20199;-85
2024/04/06 02:58:51;;;;;;;0.90;0.90;;;;;;;13.60;100.00;100334.03;4425309;32;20283;-85
2024/04/06 03:01:16;;;;;;;1.42;0.95;;;;;;;13.54;100.00;100342.75;4424663;32;20153;-86
2024/04/06 03:03:42;;;;;;;1.17;1.08;;;;;;;13.44;100.00;100344.84;4428061;32;20164;-86
2024/04/06 03:06:08;;;;;;;1.10;1.10;;;;;;;13.36;100.00;100344.91;4426382;32;20160;-85
2024/04/06 03:08:35;;;;;;;0.68;0.68;;;;;;;13.18;100.00;100334.59;4426919;32;20250;-85
2024/04/06 03:11:00;;;;;;;1.10;1.00;;;;;;;13.29;100.00;100349.28;4425750;32;20165;-85
2024/04/06 03:13:26;;;;;;;0.90;0.90;;;;;;;13.25;100.00;100351.50;4424563;32;20587;-85
2024/04/06 03:15:52;;;;;;;0.82;0.82;;;;;;;13.26;100.00;100357.66;4425122;32;20168;-85
2024/04/06 03:18:18;;;;;;;1.10;1.00;;;;;;;13.21;100.00;100360.84;4419382;32;20177;-84
2024/04/06 03:20:43;;;;;;;1.10;0.98;;;;;;;13.17;100.00;100372.87;4421403;32;20472;-85
2024/04/06 03:23:09;;;;;;;0.60;0.60;;;;;;;13.13;100.00;100374.25;4408363;32;20305;-85
2024/04/06 03:25:36;;;;;;;1.65;1.15;;;;;;;13.03;100.00;100366.47;4424549;32;20648;-85
2024/04/06 03:28:02;;;;;;;0.80;0.80;;;;;;;13.09;100.00;100380.06;4425462;32;20153;-84
2024/04/06 03:30:28;;;;;;;0.95;0.90;;;;;;;13.08;100.00;100373.06;4424826;32;20161;-85
2024/04/06 03:32:54;;;;;;;0.80;0.80;;;;;;;13.09;100.00;100367.59;4420889;32;20165;-85
2024/04/06 03:35:20;;;;;;;1.08;1.08;;;;;;;13.10;100.00;100379.06;4423150;32;20191;-86
2024/04/06 03:37:47;;;;;;;2.05;1.10;;;;;;;13.09;100.00;100361.44;4424328;32;20201;-85
2024/04/06 03:40:13;;;;;;;1.17;1.17;;;;;;;13.13;100.00;100368.09;4418476;32;20157;-86
2024/04/06 03:42:40;;;;;;;0.80;0.80;;;;;;;13.13;100.00;100371.59;4424243;32;20160;-84
2024/04/06 03:45:06;;;;;;;0.95;0.95;;;;;;;13.10;100.00;100361.25;4421272;32;20161;-85
2024/04/06 03:47:32;;;;;;;1.25;1.15;;;;;;;13.10;100.00;100363.09;4422861;32;20299;-85
2024/04/06 03:49:58;;;;;;;1.17;1.02;;;;;;;13.12;100.00;100351.25;4424101;32;20551;-84
2024/04/06 03:52:24;;;;;;;0.90;0.90;;;;;;;13.09;100.00;100346.28;4422678;32;20215;-84
2024/04/06 03:54:50;;;;;;;1.00;0.90;;;;;;;13.08;100.00;100357.09;4424549;32;20156;-85
2024/04/06 03:57:16;;;;;;;1.02;1.02;;;;;;;13.05;100.00;100349.47;4424427;32;20183;-85
2024/04/06 03:59:43;;;;;;;1.77;0.90;;;;;;;13.02;100.00;100353.31;4423144;32;20221;-85
2024/04/06 04:02:09;;;;;;;0.80;0.80;;;;;;;12.98;100.00;100358.19;4425787;32;20180;-85
2024/04/06 04:04:35;;;;;;;1.95;1.17;;;;;;;12.93;100.00;100359.72;4411997;32;20615;-85
2024/04/06 04:07:01;;;;;;;1.10;1.00;;;;;;;12.90;100.00;100368.87;4420132;32;20219;-84
2024/04/06 04:09:27;;;;;;;0.80;0.80;;;;;;;12.85;100.00;100365.94;4425482;32;20586;-85
2024/04/06 04:11:52;;;;;;;0.95;0.95;;;;;;;12.82;100.00;100366.28;4423097;32;20153;-85
2024/04/06 04:14:18;;;;;;;0.80;0.80;;;;;;;12.79;100.00;100365.81;4423186;32;20804;-84
2024/04/06 04:16:45;;;;;;;0.95;0.95;;;;;;;12.71;100.00;100361.38;4412147;32;20297;-85
2024/04/06 04:19:11;;;;;;;1.17;1.02;;;;;;;12.70;100.00;100364.19;4429655;32;20160;-85
2024/04/06 04:21:37;;;;;;;0.80;0.80;;;;;;;12.58;100.00;100350.47;4424866;32;20569;-84
2024/04/06 04:24:03;;;;;;;1.35;1.25;;;;;;;12.60;100.00;100367.06;4424636;32;20516;-85
2024/04/06 04:26:29;;;;;;;0.80;0.80;;;;;;;12.56;100.00;100360.47;4425571;32;20555;-86
2024/04/06 04:28:55;;;;;;;0.85;0.85;;;;;;;12.51;100.00;100368.97;4427766;32;20260;-85
2024/04/06 04:31:20;;;;;;;1.08;0.98;;;;;;;12.50;100.00;100375.28;4427715;32;20272;-85
2024/04/06 04:33:47;;;;;;;2.12;1.10;;;;;;;12.46;100.00;100389.94;4427243;32;20172;-84
2024/04/06 04:36:15;;;;;;;1.35;1.23;;;;;;;12.32;100.00;100381.84;4423676;32;20171;-86
2024/04/06 04:38:40;;;;;;;0.75;0.75;;;;;;;12.41;100.00;100391.47;4420294;32;20497;-84
2024/04/06 04:41:07;;;;;;;0.95;0.95;;;;;;;12.37;100.00;100398.16;4429877;32;20189;-84
2024/04/06 04:43:33;;;;;;;1.08;0.93;;;;;;;12.31;100.00;100404.97;4429905;32;20200;-84
2024/04/06 04:45:59;;;;;;;0.90;0.90;;;;;;;12.28;100.00;100412.47;4421286;32;20161;-85
2024/04/06 04:48:25;;;;;;;0.98;0.98;;;;;;;12.25;100.00;100405.66;4425572;32;20245;-85
2024/04/06 04:50:51;;;;;;;1.55;1.35;;;;;;;12.24;100.00;100406.66;4428653;32;20210;-85
2024/04/06 04:53:17;;;;;;;1.25;1.15;;;;;;;12.20;100.00;100406.19;4428263;32;20183;-85
2024/04/06 04:55:44;;;;;;;0.90;0.90;;;;;;;12.18;100.00;100407.34;4423380;32;20168;-85
2024/04/06 04:58:10;;;;;;;1.02;1.02;;;;;;;12.16;100.00;100422.66;4422506;32;20156;-85
2024/04/06 05:00:36;;;;;;;0.90;0.90;;;;;;;12.13;100.00;100415.00;4426527;32;20176;-84
2024/04/06 05:03:04;;;;;;;1.23;1.12;;;;;;;12.01;100.00;100408.41;4425174;32;20217;-84
2024/04/06 05:05:30;;;;;;;2.03;0.90;;;;;;;12.06;100.00;100425.50;4426592;32;20224;-84
2024/04/06 05:07:56;;;;;;;0.95;0.95;;;;;;;12.05;100.00;100430.97;4426444;32;20656;-85
2024/04/06 05:10:22;;;;;;;0.90;0.90;;;;;;;12.05;100.00;100428.31;4422460;32;20160;-84
2024/04/06 05:12:48;;;;;;;1.30;1.20;;;;;;;12.02;100.00;100434.00;4423447;32;20160;-84
2024/04/06 05:15:14;;;;;;;0.90;0.90;;;;;;;12.01;100.00;100435.00;4419751;32;20505;-85
2024/04/06 05:17:40;;;;;;;1.10;1.10;;;;;;;11.99;100.00;100432.50;4409627;32;20176;-85
2024/04/06 05:20:06;;;;;;;0.75;0.75;;;;;;;11.98;100.00;100433.50;4426202;32;20275;-84
2024/04/06 05:22:32;;;;;;;0.75;0.75;;;;;;;11.94;100.00;100442.81;4426977;32;20165;-85
2024/04/06 05:24:59;;;;;;;1.10;1.10;;;;;;;11.94;100.00;100439.31;4424439;32;20652;-84
2024/04/06 05:27:25;;;;;;;3.45;1.83;;;;;;;11.91;100.00;100432.50;4424898;32;20164;-85
2024/04/06 05:29:51;;;;;;;1.55;1.42;;;;;;;11.95;100.00;100440.97;4412559;32;20585;-84
2024/04/06 05:32:17;;;;;;;2.08;1.75;;;;;;;12.00;100.00;100434.16;4423767;32;20319;-85
2024/04/06 05:34:43;;;;;;;1.23;1.23;;;;;;;12.05;100.00;100436.28;4409212;32;20196;-85
2024/04/06 05:37:08;;;;;;;1.50;1.40;;;;;;;12.10;100.00;100432.12;4425752;32;20196;-84
2024/04/06 05:39:34;;;;;;;1.10;1.10;;;;;;;12.14;100.00;100440.59;4427242;32;20233;-85
2024/04/06 05:42:01;;;;;;;3.83;1.67;;;;;;;12.19;100.00;100438.25;4426509;32;20165;-85
2024/04/06 05:44:26;;;;;;;1.70;1.40;;;;;;;12.11;100.00;100417.00;4423691;32;20173;-84
2024/04/06 05:46:52;;;;;;;1.40;1.35;;;;;;;12.13;100.00;100423.81;4422683;32;20569;-84
2024/04/06 05:49:18;;;;;;;1.45;1.35;;;;;;;12.32;100.00;100440.37;4422996;32;20266;-84
2024/04/06 05:51:44;;;;;;;1.40;1.30;;;;;;;12.37;100.00;100438.88;4424172;32;20228;-85
2024/04/06 05:54:10;;;;;;;1.60;1.50;;;;;;;12.41;100.00;100434.88;4412228;32;20172;-86
2024/04/06 05:56:36;;;;;;;1.80;1.70;;;;;;;12.44;100.00;100445.19;4426669;32;20192;-84
2024/04/06 05:59:02;;;;;;;2.62;1.50;;;;;;;12.47;100.00;100443.97;4422498;32;20627;-85
2024/04/06 06:01:28;;;;;;;1.27;1.12;;;;;;;12.49;100.00;100442.81;4424426;32;20201;-85
2024/04/06 06:03:54;;;;;;;1.55;1.45;;;;;;;12.51;100.00;100443.47;4424156;32;20180;-85
2024/04/06 06:06:20;;;;;;;1.35;1.25;;;;;;;12.54;100.00;100443.13;4423272;32;20241;-85
2024/04/06 06:08:46;;;;;;;3.22;1.30;;;;;;;12.58;100.00;100435.62;4431169;32;20168;-85
2024/04/06 06:11:12;;;;;;;1.25;1.12;;;;;;;12.61;100.00;100436.09;4423993;32;20230;-86
2024/04/06 06:13:38;;;;;;;1.40;1.27;;;;;;;12.67;100.00;100436.41;4424060;32;20451;-85
2024/04/06 06:16:05;;;;;;;1.10;1.10;;;;;;;12.70;100.00;100436.91;4423500;32;20180;-86
2024/04/06 06:18:31;;;;;;;1.15;1.15;;;;;;;12.74;100.00;100435.53;4424606;32;20176;-86
2024/04/06 06:20:56;;;;;;;1.27;1.27;;;;;;;12.80;100.00;100442.81;4421021;32;20227;-85
2024/04/06 06:23:22;;;;;;;1.35;1.25;;;;;;;12.84;100.00;100444.16;4424064;32;20181;-85
2024/04/06 06:25:48;;;;;;;1.05;1.05;;;;;;;12.89;100.00;100438.28;4424625;32;20195;-86
2024/04/06 06:28:14;;;;;;;2.55;1.40;;;;;;;12.94;100.00;100446.56;4423697;32;20231;-85
2024/04/06 06:30:40;;;;;;;1.17;1.17;;;;;;;12.98;100.00;100448.72;4425439;32;20210;-84
2024/04/06 06:33:07;;;;;;;1.23;1.23;;;;;;;13.02;100.00;100455.34;4423784;32;20212;-85
2024/04/06 06:35:34;;;;;;;1.27;1.17;;;;;;;13.08;100.00;100458.31;4407518;32;20209;-85
2024/04/06 06:38:00;;;;;;;1.65;1.40;;;;;;;13.11;100.00;100460.63;4405262;32;20292;-86
2024/04/06 06:40:26;;;;;;;2.37;1.48;;;;;;;13.19;100.00;100456.12;4423492;32;20274;-85
2024/04/06 06:42:53;;;;;;;0.90;0.85;;;;;;;13.24;100.00;100467.06;4422696;32;20149;-85
2024/04/06 06:45:19;;;;;;;1.45;1.23;;;;;;;13.29;100.00;100456.69;4425661;32;20223;-85
2024/04/06 06:47:44;;;;;;;1.23;1.12;;;;;;;13.31;100.00;100462.69;4408704;32;20231;-85
2024/04/06 06:50:11;;;;;;;1.33;1.23;;;;;;;13.38;100.00;100468.13;4422473;32;20217;-85
2024/04/06 06:52:37;;;;;;;2.20;1.30;;;;;;;13.45;100.00;100466.41;4419405;32;20169;-85
2024/04/06 06:55:03;;;;;;;1.42;1.33;;;;;;;13.37;100.00;100448.66;4424125;32;20280;-86
2024/04/06 06:57:29;;;;;;;1.25;1.15;;;;;;;13.56;100.00;100474.00;4425865;32;20320;-85
2024/04/06 06:59:55;;;;;;;1.48;1.37;;;;;;;13.61;100.00;100468.13;4418411;32;20168;-85
2024/04/06 07:02:21;;;;;;;1.20;1.20;;;;;;;13.65;100.00;100466.75;4429249;32;20190;-86
2024/04/06 07:04:46;;;;;;;3.00;1.33;;;;;;;13.69;100.00;100468.09;4426086;32;20580;-86
2024/04/06 07:07:13;;;;;;;1.17;1.17;;;;;;;13.61;100.00;100446.81;4425255;32;20571;-86
2024/04/06 07:09:39;;;;;;;1.87;1.27;;;;;;;13.80;100.00;100471.13;4408035;32;20529;-85
2024/04/06 07:12:07;;;;;;;1.02;1.02;;;;;;;13.85;100.00;100461.75;4408226;32;20173;-85
2024/04/06 07:14:33;;;;;;;1.60;1.50;;;;;;;13.90;100.00;100475.41;4422108;32;20233;-84
2024/04/06 07:17:00;;;;;;;2.17;1.58;;;;;;;13.95;100.00;100465.84;4424362;32;20184;-85
2024/04/06 07:19:26;;;;;;;1.42;1.33;;;;;;;14.01;100.00;100474.94;4425724;32;20204;-85
2024/04/06 07:21:51;;;;;;;1.15;1.00;;;;;;;14.06;100.00;100477.87;4426327;32;20238;-84
2024/04/06 07:24:18;;;;;;;2.17;1.62;;;;;;;14.10;100.00;100474.69;4425251;32;20187;-84
2024/04/06 07:26:44;;;;;;;2.67;1.73;;;;;;;14.15;100.00;100474.97;4422126;32;20618;-84
2024/04/06 07:29:09;;;;;;;1.20;1.10;;;;;;;14.18;100.00;100471.91;4421752;32;20168;-84
2024/04/06 07:31:35;;;;;;;1.10;1.08;;;;;;;14.09;100.00;100450.84;4412824;32;20219;-85
2024/04/06 07:34:01;;;;;;;1.25;1.17;;;;;;;14.25;100.00;100461.34;4426003;32;20724;-85
2024/04/06 07:36:27;;;;;;;1.23;1.12;;;;;;;14.29;100.00;100469.81;4422772;32;20164;-84
2024/04/06 07:38:53;;;;;;;2.20;1.70;;;;;;;14.32;100.00;100474.78;4423706;32;20248;-84
2024/04/06 07:41:19;;;;;;;1.20;1.10;;;;;;;14.36;100.00;100476.91;4422253;32;20625;-85
2024/04/06 07:43:45;;;;;;;1.25;1.10;;;;;;;14.40;100.00;100470.22;4422487;32;20214;-85
2024/04/06 07:46:11;;;;;;;0.98;0.98;;;;;;;14.45;100.00;100475.81;4409403;32;20245;-85
2024/04/06 07:48:37;;;;;;;0.90;0.90;;;;;;;14.50;100.00;100476.12;4418915;32;20254;-85
2024/04/06 07:51:03;;;;;;;1.37;0.85;;;;;;;14.54;100.00;100472.06;4417581;32;20688;-85
2024/04/06 07:53:29;;;;;;;0.65;0.65;;;;;;;14.61;100.00;100469.47;4421984;32;20161;-85
2024/04/06 07:55:55;;;;;;;1.23;1.10;;;;;;;14.65;100.00;100457.41;4424697;32;20152;-85
2024/04/06 07:58:21;;;;;;;1.55;1.45;;;;;;;14.71;100.00;100459.34;4418464;32;20238;-86
2024/04/06 08:00:47;;;;;;;1.20;1.17;;;;;;;14.75;100.00;100455.28;4422294;32;20230;-85
2024/04/06 08:03:13;;;;;;;1.15;1.12;;;;;;;14.80;100.00;100452.84;4419917;32;20212;-86
2024/04/06 08:05:39;;;;;;;1.40;1.30;;;;;;;14.85;100.00;100460.31;4421705;32;20187;-85
2024/04/06 08:08:07;;;;;;;1.10;1.10;;;;;;;14.89;100.00;100458.94;4422313;32;20644;-85
2024/04/06 08:10:33;;;;;;;1.08;1.08;;;;;;;14.94;100.00;100459.19;4418682;32;20165;-85
2024/04/06 08:12:59;;;;;;;1.00;1.00;;;;;;;14.96;100.00;100455.31;4425655;32;20149;-85
2024/04/06 08:15:26;;;;;;;0.85;0.85;;;;;;;15.02;100.00;100455.56;4420678;32;20500;-85
2024/04/06 08:17:52;;;;;;;1.00;1.00;;;;;;;15.05;100.00;100450.69;4421466;32;20223;-87
2024/04/06 08:20:19;;;;;;;1.23;1.00;;;;;;;15.10;100.00;100452.78;4421652;32;20200;-85
2024/04/06 08:22:44;;;;;;;2.00;0.98;;;;;;;15.16;100.00;100452.03;4426102;32;20144;-86
2024/04/06 08:25:11;;;;;;;1.70;1.35;;;;;;;15.22;100.00;100460.13;4420173;32;20222;-86
2024/04/06 08:27:37;;;;;;;1.02;1.02;;;;;;;15.18;100.00;100429.44;4418968;32;20164;-85
2024/04/06 08:30:19;;;;;;;1.42;1.33;;;;;;;15.33;100.00;100443.59;4424200;32;20160;-84
2024/04/06 08:32:55;;;;;;;1.00;1.00;;;;;;;15.31;100.00;100426.91;4406572;32;20218;-85
2024/04/06 08:35:21;;;;;;;1.65;1.20;;;;;;;15.43;100.00;100437.91;4424061;32;20165;-85
2024/04/06 08:37:46;;;;;;;2.60;1.20;;;;;;;15.38;100.00;100414.44;4422933;32;20183;-85
2024/04/06 08:40:16;;;;;;;1.15;1.05;;;;;;;15.52;100.00;100428.75;4410857;32;20926;-85
2024/04/06 08:42:44;;;;;;;1.02;0.93;;;;;;;15.58;100.00;100428.00;4422956;32;20257;-85
2024/04/06 08:45:11;;;;;;;1.33;1.23;;;;;;;15.54;100.00;100412.53;4428029;32;20160;-85
2024/04/06 08:47:38;;;;;;;1.10;1.00;;;;;;;15.72;100.00;100429.75;4428055;32;20577;-85
2024/04/06 08:50:07;;;;;;;1.58;1.48;;;;;;;15.77;100.00;100430.00;4424036;32;20234;-85
2024/04/06 08:52:34;;;;;;;2.00;1.00;;;;;;;15.84;100.00;100437.25;4419936;32;20234;-85
2024/04/06 08:55:00;;;;;;;1.00;0.90;;;;;;;15.90;100.00;100434.66;4424080;32;20992;-86
2024/04/06 08:57:26;;;;;;;0.82;0.80;;;;;;;15.96;100.00;100433.87;4427978;32;20168;-84
2024/04/06 08:59:53;;;;;;;2.55;0.80;;;;;;;16.06;100.00;100422.78;4411963;32;20184;-85
2024/04/06 09:02:19;;;;;;;1.08;0.62;;;;;;;16.14;100.00;100412.75;4425277;32;20187;-85
2024/04/06 09:04:45;;;;;;;0.80;0.80;;;;;;;16.23;100.00;100416.13;4429167;32;20168;-85
2024/04/06 09:07:12;;;;;;;2.33;0.80;;;;;;;16.28;100.00;100399.44;4422361;32;20211;-85
2024/04/06 09:09:37;;;;;;;0.68;0.68;;;;;;;16.46;100.00;100415.78;4426346;32;20234;-87
2024/04/06 09:12:04;;;;;;;0.60;0.60;;;;;;;16.58;100.00;100403.50;4428374;32;21238;-86
2024/04/06 09:14:31;;;;;;;0.43;0.43;;;;;;;16.70;100.00;100403.78;4427683;32;20521;-86
2024/04/06 09:16:59;;;;;;;0.68;0.65;;;;;;;16.84;100.00;100400.13;4424544;32;20157;-85
2024/04/06 09:19:24;;;;;;;0.65;0.65;;;;;;;16.97;100.00;100400.16;4411541;32;20540;-84
2024/04/06 09:21:50;;;;;;;0.80;0.80;;;;;;;17.11;100.00;100390.28;4425622;32;20210;-85
2024/04/06 09:24:17;;;;;;;0.60;0.60;;;;;;;17.17;100.00;100386.78;4419767;32;20196;-85
2024/04/06 09:26:45;;;;;;;0.88;0.88;;;;;;;17.26;100.00;100381.03;4424151;32;20192;-84
2024/04/06 09:29:11;;;;;;;1.40;0.43;;;;;;;17.32;100.00;100371.34;4422510;32;20157;-85
2024/04/06 09:31:46;;;;;;;0.70;0.50;;;;;;;17.46;100.00;100370.31;4428675;32;20565;-86
2024/04/06 09:34:12;;;;;;;1.40;0.50;;;;;;;17.54;100.00;100380.84;4427027;32;20568;-86
2024/04/06 09:36:43;;;;;;;0.50;0.50;;;;;;;17.81;100.00;100376.28;4426884;32;20314;-85
2024/04/06 09:39:09;;;;;;;0.50;0.50;;;;;;;17.96;100.00;100376.06;4427558;32;20169;-85
2024/04/06 09:41:37;;;;;;;0.75;0.60;;;;;;;18.21;100.00;100362.75;4421610;32;20510;-84
2024/04/06 09:44:03;;;;;;;0.62;0.62;;;;;;;18.57;100.00;100367.62;4421017;32;20544;-85
2024/04/06 09:46:30;;;;;;;0.80;0.80;;;;;;;18.77;100.00;100366.47;4424429;32;20234;-85
2024/04/06 09:48:56;;;;;;;0.50;0.50;;;;;;;18.93;100.00;100365.16;4425638;32;20176;-85
2024/04/06 09:51:22;;;;;;;2.10;0.68;;;;;;;19.06;100.00;100367.75;4420383;32;20585;-85
2024/04/06 09:53:57;;;;;;;0.77;0.70;;;;;;;19.17;100.00;100364.34;4424236;32;20227;-84
2024/04/06 09:56:35;;;;;;;0.55;0.55;;;;;;;19.34;100.00;100366.50;4419963;32;20270;-85
2024/04/06 09:59:04;;;;;;;0.73;0.73;;;;;;;19.45;100.00;100357.72;4423587;32;20643;-85
2024/04/06 10:01:30;;;;;;;1.08;0.80;;;;;;;19.60;100.00;100361.75;4418216;32;20180;-85
2024/04/06 10:03:56;;;;;;;0.50;0.50;;;;;;;19.76;100.00;100364.94;4423523;32;20214;-85
2024/04/06 10:06:25;;;;;;;0.55;0.50;;;;;;;19.90;100.00;100363.75;4423053;32;20624;-85
2024/04/06 10:08:57;;;;;;;0.50;0.50;;;;;;;19.96;100.00;100355.59;4412678;32;20616;-85
2024/04/06 10:11:24;;;;;;;1.77;0.60;;;;;;;20.11;100.00;100354.41;4422946;32;20153;-85
2024/04/06 10:13:53;;;;;;;0.62;0.60;;;;;;;20.33;98.41;100352.94;4424682;32;20173;-85
2024/04/06 10:16:21;;;;;;;1.02;0.73;;;;;;;20.35;100.00;100351.66;4419186;32;20213;-84
2024/04/06 10:18:47;;;;;;;0.75;0.70;;;;;;;20.43;100.00;100354.03;4429297;32;20157;-85
2024/04/06 10:21:16;;;;;;;0.75;0.73;;;;;;;20.44;97.21;100352.19;4423579;32;20188;-85
2024/04/06 10:23:45;;;;;;;1.30;0.98;;;;;;;20.42;98.21;100343.47;4426170;32;20172;-87
2024/04/06 10:26:15;;;;;;;0.90;0.90;;;;;;;20.41;99.14;100345.34;4424841;32;20215;-85
2024/04/06 10:28:42;;;;;;;0.57;0.57;;;;;;;20.37;99.30;100337.97;4427395;32;20188;-84
2024/04/06 10:31:08;;;;;;;0.65;0.65;;;;;;;20.31;100.00;100342.34;4427594;32;20296;-84
2024/04/06 10:33:37;;;;;;;1.52;0.85;;;;;;;20.28;99.29;100340.09;4426202;32;20258;-84
2024/04/06 10:36:09;;;;;;;0.50;0.50;;;;;;;20.25;95.17;100335.19;4418925;32;20165;-85
2024/04/06 10:38:34;;;;;;;0.50;0.50;;;;;;;20.30;93.59;100337.19;4427698;32;20176;-85
2024/04/06 10:41:00;;;;;;;0.57;0.57;;;;;;;20.41;92.86;100337.28;4422384;32;20192;-85
2024/04/06 10:43:26;;;;;;;0.45;0.45;;;;;;;20.43;92.22;100327.09;4424368;32;20191;-84
2024/04/06 10:45:52;;;;;;;0.45;0.45;;;;;;;20.46;89.80;100331.22;4422873;32;20145;-84
2024/04/06 10:48:18;;;;;;;0.43;0.43;;;;;;;20.46;86.50;100338.47;4425940;32;20216;-84
2024/04/06 10:50:45;;;;;;;0.40;0.40;;;;;;;20.45;86.70;100332.25;4419053;32;20548;-83
2024/04/06 10:53:12;;;;;;;0.40;0.40;;;;;;;20.55;87.46;100337.09;4426290;32;20510;-85
2024/04/06 10:55:38;;;;;;;0.43;0.37;;;;;;;20.45;86.30;100321.47;4427026;32;20149;-84
2024/04/06 10:58:05;;;;;;;0.95;0.57;;;;;;;20.58;84.90;100342.88;4426162;32;20168;-84
2024/04/06 11:00:31;;;;;;;0.57;0.57;;;;;;;20.60;84.95;100338.09;4426278;32;20165;-84
2024/04/06 11:03:00;;;;;;;0.37;0.37;;;;;;;20.62;84.08;100338.66;4426495;32;20207;-84
2024/04/06 11:05:26;;;;;;;0.50;0.50;;;;;;;20.69;84.22;100330.47;4418352;32;20216;-84
2024/04/06 11:07:53;;;;;;;0.62;0.50;;;;;;;20.75;83.16;100321.47;4425944;32;20168;-84
2024/04/06 11:10:19;;;;;;;8.25;1.25;;;;;;;20.80;83.35;100325.13;4417484;32;20161;-86
2024/04/06 11:12:44;;;;;;;0.40;0.40;;;;;;;20.90;84.95;100318.34;4423790;32;20222;-84